sensor_id;sensor_type;location;lat;lon;timestamp;temperature;humidity
16578;DHT22;8401;52.528;13.340;2022-09-09T00:01:49;16.00;99.90
16578;DHT22;8401;52.528;13.340;2022-09-09T00:04:30;15.90;99.90
16578;DHT22;8401;52.528;13.340;2022-09-09T00:09:50;15.90;99.90
16578;DHT22;8401;52.528;13.340;2022-09-09T00:15:19;16.00;99.90
16578;DHT22;8401;52.528;13.340;2022-09-09T00:20:16;16.10;99.90
16578;DHT22;8401;52.528;13.340;2022-09-09T00:22:54;16.00;99.90
16578;DHT22;8401;52.528;13.340;2022-09-09T00:25:31;15.90;99.90
16578;DHT22;8401;52.528;13.340;2022-09-09T00:27:59;15.90;99.90
16578;DHT22;8401;52.528;13.340;2022-09-09T00:30:31;15.80;99.90
16578;DHT22;8401;52.528;13.340;2022-09-09T00:33:10;15.90;99.90
16578;DHT22;8401;52.528;13.340;2022-09-09T00:36:09;16.10;99.90
16578;DHT22;8401;52.528;13.340;2022-09-09T00:38:47;16.00;99.90
16578;DHT22;8401;52.528;13.340;2022-09-09T00:41:18;15.90;99.90
16578;DHT22;8401;52.528;13.340;2022-09-09T00:43:55;15.80;99.90
16578;DHT22;8401;52.528;13.340;2022-09-09T00:54:27;15.80;99.90
16578;DHT22;8401;52.528;13.340;2022-09-09T00:57:17;15.80;99.90
16578;DHT22;8401;52.528;13.340;2022-09-09T00:59:52;15.80;99.90
16578;DHT22;8401;52.528;13.340;2022-09-09T01:04:52;15.80;99.90
16578;DHT22;8401;52.528;13.340;2022-09-09T01:07:18;15.90;99.90
16578;DHT22;8401;52.528;13.340;2022-09-09T01:12:40;16.00;99.90
16578;DHT22;8401;52.528;13.340;2022-09-09T01:15:29;15.90;99.90
16578;DHT22;8401;52.528;13.340;2022-09-09T01:18:04;15.80;99.90
16578;DHT22;8401;52.528;13.340;2022-09-09T01:20:46;15.70;99.90
16578;DHT22;8401;52.528;13.340;2022-09-09T01:26:12;15.80;99.90
16578;DHT22;8401;52.528;13.340;2022-09-09T01:28:40;15.80;99.90
16578;DHT22;8401;52.528;13.340;2022-09-09T01:31:09;15.90;99.90
16578;DHT22;8401;52.528;13.340;2022-09-09T01:33:36;15.90;99.90
16578;DHT22;8401;52.528;13.340;2022-09-09T01:36:09;15.90;99.90
16578;DHT22;8401;52.528;13.340;2022-09-09T01:38:36;15.80;99.90
16578;DHT22;8401;52.528;13.340;2022-09-09T01:41:02;15.80;99.90
16578;DHT22;8401;52.528;13.340;2022-09-09T01:43:29;15.70;99.90
16578;DHT22;8401;52.528;13.340;2022-09-09T01:45:56;15.70;99.90
16578;DHT22;8401;52.528;13.340;2022-09-09T01:48:25;15.70;99.90
16578;DHT22;8401;52.528;13.340;2022-09-09T01:50:51;15.70;99.90
16578;DHT22;8401;52.528;13.340;2022-09-09T01:53:18;15.60;99.90
16578;DHT22;8401;52.528;13.340;2022-09-09T02:04:08;15.50;99.90
16578;DHT22;8401;52.528;13.340;2022-09-09T02:06:40;15.40;99.90
16578;DHT22;8401;52.528;13.340;2022-09-09T02:09:07;15.50;99.90
16578;DHT22;8401;52.528;13.340;2022-09-09T02:11:36;15.50;99.90
16578;DHT22;8401;52.528;13.340;2022-09-09T02:14:08;15.50;99.90
16578;DHT22;8401;52.528;13.340;2022-09-09T02:16:42;15.50;99.90
16578;DHT22;8401;52.528;13.340;2022-09-09T02:19:27;15.50;99.90
16578;DHT22;8401;52.528;13.340;2022-09-09T02:21:56;15.50;99.90
16578;DHT22;8401;52.528;13.340;2022-09-09T02:24:23;15.60;99.90
16578;DHT22;8401;52.528;13.340;2022-09-09T02:26:52;15.50;99.90
16578;DHT22;8401;52.528;13.340;2022-09-09T02:29:31;15.50;99.90
16578;DHT22;8401;52.528;13.340;2022-09-09T02:32:01;15.40;99.90
16578;DHT22;8401;52.528;13.340;2022-09-09T02:34:28;15.50;99.90
16578;DHT22;8401;52.528;13.340;2022-09-09T02:36:57;15.50;99.90
16578;DHT22;8401;52.528;13.340;2022-09-09T02:39:25;15.50;99.90
16578;DHT22;8401;52.528;13.340;2022-09-09T02:41:51;15.50;99.90
16578;DHT22;8401;52.528;13.340;2022-09-09T02:44:17;15.40;99.90
16578;DHT22;8401;52.528;13.340;2022-09-09T02:52:40;15.40;99.90
16578;DHT22;8401;52.528;13.340;2022-09-09T02:55:23;15.30;99.90
16578;DHT22;8401;52.528;13.340;2022-09-09T02:57:51;15.30;99.90
16578;DHT22;8401;52.528;13.340;2022-09-09T03:00:24;15.40;99.90
16578;DHT22;8401;52.528;13.340;2022-09-09T03:02:50;15.40;99.90
16578;DHT22;8401;52.528;13.340;2022-09-09T03:05:16;15.30;99.90
16578;DHT22;8401;52.528;13.340;2022-09-09T03:07:42;15.40;99.90
16578;DHT22;8401;52.528;13.340;2022-09-09T03:10:08;15.40;99.90
16578;DHT22;8401;52.528;13.340;2022-09-09T03:12:33;15.30;99.90
16578;DHT22;8401;52.528;13.340;2022-09-09T03:14:59;15.20;99.90
16578;DHT22;8401;52.528;13.340;2022-09-09T03:17:25;15.20;99.90
16578;DHT22;8401;52.528;13.340;2022-09-09T03:19:51;15.30;99.90
16578;DHT22;8401;52.528;13.340;2022-09-09T03:22:18;15.40;99.90
16578;DHT22;8401;52.528;13.340;2022-09-09T03:24:43;15.40;99.90
16578;DHT22;8401;52.528;13.340;2022-09-09T03:27:09;15.40;99.90
16578;DHT22;8401;52.528;13.340;2022-09-09T03:29:34;15.50;99.90
16578;DHT22;8401;52.528;13.340;2022-09-09T03:32:00;15.40;99.90
16578;DHT22;8401;52.528;13.340;2022-09-09T03:34:25;15.20;99.90
16578;DHT22;8401;52.528;13.340;2022-09-09T03:36:51;15.10;99.90
16578;DHT22;8401;52.528;13.340;2022-09-09T03:39:17;15.20;99.90
16578;DHT22;8401;52.528;13.340;2022-09-09T03:41:42;15.30;99.90
16578;DHT22;8401;52.528;13.340;2022-09-09T03:44:10;15.40;99.90
16578;DHT22;8401;52.528;13.340;2022-09-09T03:46:36;15.30;99.90
16578;DHT22;8401;52.528;13.340;2022-09-09T03:49:01;15.30;99.90
16578;DHT22;8401;52.528;13.340;2022-09-09T03:51:27;15.20;99.90
16578;DHT22;8401;52.528;13.340;2022-09-09T03:53:53;15.20;99.90
16578;DHT22;8401;52.528;13.340;2022-09-09T03:56:20;15.20;99.90
16578;DHT22;8401;52.528;13.340;2022-09-09T03:58:47;15.30;99.90
16578;DHT22;8401;52.528;13.340;2022-09-09T04:01:13;15.30;99.90
16578;DHT22;8401;52.528;13.340;2022-09-09T04:03:40;15.30;99.90
16578;DHT22;8401;52.528;13.340;2022-09-09T04:06:07;15.30;99.90
16578;DHT22;8401;52.528;13.340;2022-09-09T04:08:33;15.20;99.90
16578;DHT22;8401;52.528;13.340;2022-09-09T04:11:01;15.10;99.90
16578;DHT22;8401;52.528;13.340;2022-09-09T04:13:34;15.00;99.90
16578;DHT22;8401;52.528;13.340;2022-09-09T04:16:01;15.10;99.90
16578;DHT22;8401;52.528;13.340;2022-09-09T04:18:28;15.20;99.90
16578;DHT22;8401;52.528;13.340;2022-09-09T04:20:55;15.20;99.90
16578;DHT22;8401;52.528;13.340;2022-09-09T04:23:23;15.10;99.90
16578;DHT22;8401;52.528;13.340;2022-09-09T04:25:53;15.10;99.90
16578;DHT22;8401;52.528;13.340;2022-09-09T04:28:21;15.20;99.90
16578;DHT22;8401;52.528;13.340;2022-09-09T04:30:47;15.00;99.90
16578;DHT22;8401;52.528;13.340;2022-09-09T04:33:14;15.10;99.90
16578;DHT22;8401;52.528;13.340;2022-09-09T04:35:43;15.20;99.90
16578;DHT22;8401;52.528;13.340;2022-09-09T04:38:09;15.20;99.90
16578;DHT22;8401;52.528;13.340;2022-09-09T04:40:35;15.20;99.90
16578;DHT22;8401;52.528;13.340;2022-09-09T04:43:02;15.20;99.90
16578;DHT22;8401;52.528;13.340;2022-09-09T04:45:30;15.20;99.90
16578;DHT22;8401;52.528;13.340;2022-09-09T04:47:56;15.30;99.90
16578;DHT22;8401;52.528;13.340;2022-09-09T04:50:22;15.30;99.90
16578;DHT22;8401;52.528;13.340;2022-09-09T04:52:48;15.30;99.90
16578;DHT22;8401;52.528;13.340;2022-09-09T04:55:14;15.20;99.90
16578;DHT22;8401;52.528;13.340;2022-09-09T04:57:42;15.10;99.90
16578;DHT22;8401;52.528;13.340;2022-09-09T05:00:08;15.10;99.90
16578;DHT22;8401;52.528;13.340;2022-09-09T05:02:38;15.20;99.90
16578;DHT22;8401;52.528;13.340;2022-09-09T05:05:05;15.30;99.90
16578;DHT22;8401;52.528;13.340;2022-09-09T05:07:31;15.20;99.90
16578;DHT22;8401;52.528;13.340;2022-09-09T05:09:57;15.30;99.90
16578;DHT22;8401;52.528;13.340;2022-09-09T05:12:23;15.30;99.90
16578;DHT22;8401;52.528;13.340;2022-09-09T05:14:51;15.30;99.90
16578;DHT22;8401;52.528;13.340;2022-09-09T05:17:16;15.30;99.90
16578;DHT22;8401;52.528;13.340;2022-09-09T05:19:42;15.30;99.90
16578;DHT22;8401;52.528;13.340;2022-09-09T05:22:08;15.50;99.90
16578;DHT22;8401;52.528;13.340;2022-09-09T05:24:33;15.40;99.90
16578;DHT22;8401;52.528;13.340;2022-09-09T05:26:59;15.50;99.90
16578;DHT22;8401;52.528;13.340;2022-09-09T05:29:27;15.60;99.90
16578;DHT22;8401;52.528;13.340;2022-09-09T05:31:53;15.40;99.90
16578;DHT22;8401;52.528;13.340;2022-09-09T05:34:18;15.40;99.90
16578;DHT22;8401;52.528;13.340;2022-09-09T05:36:46;15.60;99.90
16578;DHT22;8401;52.528;13.340;2022-09-09T05:39:12;15.60;99.90
16578;DHT22;8401;52.528;13.340;2022-09-09T05:41:37;15.70;99.90
16578;DHT22;8401;52.528;13.340;2022-09-09T05:44:03;15.70;99.90
16578;DHT22;8401;52.528;13.340;2022-09-09T05:46:29;15.60;99.90
16578;DHT22;8401;52.528;13.340;2022-09-09T05:48:55;15.60;99.90
16578;DHT22;8401;52.528;13.340;2022-09-09T05:51:26;15.60;99.90
16578;DHT22;8401;52.528;13.340;2022-09-09T05:53:53;15.60;99.90
16578;DHT22;8401;52.528;13.340;2022-09-09T05:56:22;15.50;99.90
16578;DHT22;8401;52.528;13.340;2022-09-09T05:58:50;15.60;99.90
16578;DHT22;8401;52.528;13.340;2022-09-09T06:01:22;15.80;99.90
16578;DHT22;8401;52.528;13.340;2022-09-09T06:03:49;15.90;99.90
16578;DHT22;8401;52.528;13.340;2022-09-09T06:06:27;15.90;99.90
16578;DHT22;8401;52.528;13.340;2022-09-09T06:08:55;15.80;99.90
16578;DHT22;8401;52.528;13.340;2022-09-09T06:11:25;16.00;99.90
16578;DHT22;8401;52.528;13.340;2022-09-09T06:13:52;16.00;99.90
16578;DHT22;8401;52.528;13.340;2022-09-09T06:16:20;16.10;99.90
16578;DHT22;8401;52.528;13.340;2022-09-09T06:18:48;16.10;99.90
16578;DHT22;8401;52.528;13.340;2022-09-09T06:21:19;16.10;99.90
16578;DHT22;8401;52.528;13.340;2022-09-09T06:23:45;16.20;99.90
16578;DHT22;8401;52.528;13.340;2022-09-09T06:26:14;16.10;99.90
16578;DHT22;8401;52.528;13.340;2022-09-09T06:28:42;16.10;99.90
16578;DHT22;8401;52.528;13.340;2022-09-09T06:31:11;16.10;99.90
16578;DHT22;8401;52.528;13.340;2022-09-09T06:33:41;16.20;99.90
16578;DHT22;8401;52.528;13.340;2022-09-09T06:38:41;16.50;99.90
16578;DHT22;8401;52.528;13.340;2022-09-09T06:41:08;16.60;99.90
16578;DHT22;8401;52.528;13.340;2022-09-09T06:43:34;16.60;99.90
16578;DHT22;8401;52.528;13.340;2022-09-09T06:46:15;16.70;99.90
16578;DHT22;8401;52.528;13.340;2022-09-09T06:48:42;16.80;99.90
16578;DHT22;8401;52.528;13.340;2022-09-09T06:51:20;16.80;99.90
16578;DHT22;8401;52.528;13.340;2022-09-09T06:53:54;16.90;99.90
16578;DHT22;8401;52.528;13.340;2022-09-09T06:56:38;16.90;99.90
16578;DHT22;8401;52.528;13.340;2022-09-09T06:59:07;17.00;99.90
16578;DHT22;8401;52.528;13.340;2022-09-09T07:01:38;17.00;99.90
16578;DHT22;8401;52.528;13.340;2022-09-09T07:04:06;17.30;99.90
16578;DHT22;8401;52.528;13.340;2022-09-09T07:06:38;17.30;99.90
16578;DHT22;8401;52.528;13.340;2022-09-09T07:09:06;17.20;99.90
16578;DHT22;8401;52.528;13.340;2022-09-09T07:11:47;17.30;99.90
16578;DHT22;8401;52.528;13.340;2022-09-09T07:14:14;17.40;99.90
16578;DHT22;8401;52.528;13.340;2022-09-09T07:16:44;17.50;99.90
16578;DHT22;8401;52.528;13.340;2022-09-09T07:19:11;17.70;99.90
16578;DHT22;8401;52.528;13.340;2022-09-09T07:21:36;17.70;99.90
16578;DHT22;8401;52.528;13.340;2022-09-09T07:24:02;18.00;99.90
16578;DHT22;8401;52.528;13.340;2022-09-09T07:26:30;18.30;99.90
16578;DHT22;8401;52.528;13.340;2022-09-09T07:28:56;18.20;99.90
16578;DHT22;8401;52.528;13.340;2022-09-09T07:31:26;18.30;99.90
16578;DHT22;8401;52.528;13.340;2022-09-09T07:33:52;18.50;99.90
16578;DHT22;8401;52.528;13.340;2022-09-09T07:36:23;18.90;99.90
16578;DHT22;8401;52.528;13.340;2022-09-09T07:38:53;19.30;99.90
16578;DHT22;8401;52.528;13.340;2022-09-09T07:41:25;19.60;99.90
16578;DHT22;8401;52.528;13.340;2022-09-09T07:43:51;19.40;99.90
16578;DHT22;8401;52.528;13.340;2022-09-09T07:46:20;19.90;99.90
16578;DHT22;8401;52.528;13.340;2022-09-09T07:48:51;20.20;99.90
16578;DHT22;8401;52.528;13.340;2022-09-09T07:51:24;20.50;99.90
16578;DHT22;8401;52.528;13.340;2022-09-09T07:53:56;20.40;99.90
16578;DHT22;8401;52.528;13.340;2022-09-09T07:56:26;20.50;99.90
16578;DHT22;8401;52.528;13.340;2022-09-09T07:58:53;20.30;99.90
16578;DHT22;8401;52.528;13.340;2022-09-09T08:01:29;20.70;99.90
16578;DHT22;8401;52.528;13.340;2022-09-09T08:04:00;20.30;99.90
16578;DHT22;8401;52.528;13.340;2022-09-09T08:06:38;20.60;99.90
16578;DHT22;8401;52.528;13.340;2022-09-09T08:09:04;21.00;99.90
16578;DHT22;8401;52.528;13.340;2022-09-09T08:11:30;21.30;99.90
16578;DHT22;8401;52.528;13.340;2022-09-09T08:13:56;21.30;99.90
16578;DHT22;8401;52.528;13.340;2022-09-09T08:16:25;21.70;99.90
16578;DHT22;8401;52.528;13.340;2022-09-09T08:18:52;21.20;99.90
16578;DHT22;8401;52.528;13.340;2022-09-09T08:21:20;21.50;99.90
16578;DHT22;8401;52.528;13.340;2022-09-09T08:23:47;21.90;99.90
16578;DHT22;8401;52.528;13.340;2022-09-09T08:26:18;22.30;99.90
16578;DHT22;8401;52.528;13.340;2022-09-09T08:28:49;22.50;99.90
16578;DHT22;8401;52.528;13.340;2022-09-09T08:31:28;22.40;99.90
16578;DHT22;8401;52.528;13.340;2022-09-09T08:33:54;22.20;99.90
16578;DHT22;8401;52.528;13.340;2022-09-09T08:36:24;22.10;99.90
16578;DHT22;8401;52.528;13.340;2022-09-09T08:38:52;22.10;99.90
16578;DHT22;8401;52.528;13.340;2022-09-09T08:47:07;22.00;99.90
16578;DHT22;8401;52.528;13.340;2022-09-09T08:52:27;21.70;99.90
16578;DHT22;8401;52.528;13.340;2022-09-09T08:54:56;21.40;99.90
16578;DHT22;8401;52.528;13.340;2022-09-09T08:57:25;21.60;99.90
16578;DHT22;8401;52.528;13.340;2022-09-09T08:59:52;21.70;99.90
16578;DHT22;8401;52.528;13.340;2022-09-09T09:10:51;21.80;99.90
16578;DHT22;8401;52.528;13.340;2022-09-09T09:13:26;21.40;99.90
16578;DHT22;8401;52.528;13.340;2022-09-09T09:16:19;21.60;99.90
16578;DHT22;8401;52.528;13.340;2022-09-09T09:18:43;22.00;99.90
16578;DHT22;8401;52.528;13.340;2022-09-09T09:21:12;22.70;99.90
16578;DHT22;8401;52.528;13.340;2022-09-09T09:23:48;22.70;99.90
16578;DHT22;8401;52.528;13.340;2022-09-09T09:26:16;24.20;99.90
16578;DHT22;8401;52.528;13.340;2022-09-09T09:28:42;24.70;99.90
16578;DHT22;8401;52.528;13.340;2022-09-09T09:31:12;25.40;99.90
16578;DHT22;8401;52.528;13.340;2022-09-09T09:33:51;26.90;99.90
16578;DHT22;8401;52.528;13.340;2022-09-09T09:36:19;28.70;99.90
16578;DHT22;8401;52.528;13.340;2022-09-09T09:38:54;28.30;99.90
16578;DHT22;8401;52.528;13.340;2022-09-09T09:41:43;28.50;99.90
16578;DHT22;8401;52.528;13.340;2022-09-09T09:44:32;27.30;99.90
16578;DHT22;8401;52.528;13.340;2022-09-09T09:47:10;28.00;99.90
16578;DHT22;8401;52.528;13.340;2022-09-09T09:49:36;29.90;99.90
16578;DHT22;8401;52.528;13.340;2022-09-09T09:52:06;30.90;99.90
16578;DHT22;8401;52.528;13.340;2022-09-09T09:54:37;30.30;99.90
16578;DHT22;8401;52.528;13.340;2022-09-09T09:57:11;28.90;99.90
16578;DHT22;8401;52.528;13.340;2022-09-09T09:59:37;30.00;99.90
16578;DHT22;8401;52.528;13.340;2022-09-09T10:02:20;31.10;99.90
16578;DHT22;8401;52.528;13.340;2022-09-09T10:05:04;29.50;99.90
16578;DHT22;8401;52.528;13.340;2022-09-09T10:07:29;29.30;99.90
16578;DHT22;8401;52.528;13.340;2022-09-09T10:09:56;29.30;99.90
16578;DHT22;8401;52.528;13.340;2022-09-09T10:12:56;31.30;99.90
16578;DHT22;8401;52.528;13.340;2022-09-09T10:15:42;28.10;99.90
16578;DHT22;8401;52.528;13.340;2022-09-09T10:27:11;27.90;99.90
16578;DHT22;8401;52.528;13.340;2022-09-09T10:38:30;29.10;99.90
16578;DHT22;8401;52.528;13.340;2022-09-09T10:41:10;27.20;99.90
16578;DHT22;8401;52.528;13.340;2022-09-09T10:49:53;32.10;99.90
16578;DHT22;8401;52.528;13.340;2022-09-09T10:52:38;31.20;99.90
16578;DHT22;8401;52.528;13.340;2022-09-09T10:55:18;30.90;99.90
16578;DHT22;8401;52.528;13.340;2022-09-09T10:57:52;29.00;99.90
16578;DHT22;8401;52.528;13.340;2022-09-09T11:00:42;29.00;99.90
16578;DHT22;8401;52.528;13.340;2022-09-09T11:03:25;29.70;99.90
16578;DHT22;8401;52.528;13.340;2022-09-09T11:06:12;29.80;99.90
16578;DHT22;8401;52.528;13.340;2022-09-09T11:08:39;30.20;99.90
16578;DHT22;8401;52.528;13.340;2022-09-09T11:11:19;31.30;99.90
16578;DHT22;8401;52.528;13.340;2022-09-09T11:18:57;31.80;94.40
16578;DHT22;8401;52.528;13.340;2022-09-09T11:21:29;32.70;93.30
16578;DHT22;8401;52.528;13.340;2022-09-09T11:24:04;30.10;95.20
16578;DHT22;8401;52.528;13.340;2022-09-09T11:30:04;31.10;96.90
16578;DHT22;8401;52.528;13.340;2022-09-09T11:36:21;30.90;97.20
16578;DHT22;8401;52.528;13.340;2022-09-09T11:38:50;31.90;95.90
16578;DHT22;8401;52.528;13.340;2022-09-09T11:41:18;31.00;95.60
16578;DHT22;8401;52.528;13.340;2022-09-09T11:43:48;28.90;97.00
16578;DHT22;8401;52.528;13.340;2022-09-09T11:46:18;27.50;99.00
16578;DHT22;8401;52.528;13.340;2022-09-09T11:48:57;27.10;99.80
16578;DHT22;8401;52.528;13.340;2022-09-09T11:51:28;26.20;99.90
16578;DHT22;8401;52.528;13.340;2022-09-09T11:56:42;26.60;99.90
16578;DHT22;8401;52.528;13.340;2022-09-09T12:01:57;26.10;99.90
16578;DHT22;8401;52.528;13.340;2022-09-09T12:04:32;26.20;99.90
16578;DHT22;8401;52.528;13.340;2022-09-09T12:07:01;26.30;99.90
16578;DHT22;8401;52.528;13.340;2022-09-09T12:15:02;26.40;99.90
16578;DHT22;8401;52.528;13.340;2022-09-09T12:17:30;25.90;99.90
16578;DHT22;8401;52.528;13.340;2022-09-09T12:20:21;25.50;99.90
16578;DHT22;8401;52.528;13.340;2022-09-09T12:23:04;25.40;99.90
16578;DHT22;8401;52.528;13.340;2022-09-09T12:25:41;25.60;99.90
16578;DHT22;8401;52.528;13.340;2022-09-09T12:28:18;26.00;99.90
16578;DHT22;8401;52.528;13.340;2022-09-09T12:33:35;25.90;99.90
16578;DHT22;8401;52.528;13.340;2022-09-09T12:36:03;25.80;99.90
16578;DHT22;8401;52.528;13.340;2022-09-09T12:40:57;25.90;99.90
16578;DHT22;8401;52.528;13.340;2022-09-09T12:43:25;25.80;99.90
16578;DHT22;8401;52.528;13.340;2022-09-09T12:45:57;25.60;99.90
16578;DHT22;8401;52.528;13.340;2022-09-09T12:48:36;25.50;99.90
16578;DHT22;8401;52.528;13.340;2022-09-09T12:51:04;25.30;99.90
16578;DHT22;8401;52.528;13.340;2022-09-09T12:53:36;25.30;99.90
16578;DHT22;8401;52.528;13.340;2022-09-09T12:56:07;25.20;99.90
16578;DHT22;8401;52.528;13.340;2022-09-09T12:58:34;25.30;99.90
16578;DHT22;8401;52.528;13.340;2022-09-09T13:01:02;25.30;99.90
16578;DHT22;8401;52.528;13.340;2022-09-09T13:03:31;25.20;99.90
16578;DHT22;8401;52.528;13.340;2022-09-09T13:06:10;25.00;99.90
16578;DHT22;8401;52.528;13.340;2022-09-09T13:08:37;25.00;99.90
16578;DHT22;8401;52.528;13.340;2022-09-09T13:11:07;24.60;99.90
16578;DHT22;8401;52.528;13.340;2022-09-09T13:13:39;24.50;99.90
16578;DHT22;8401;52.528;13.340;2022-09-09T13:16:15;24.60;99.90
16578;DHT22;8401;52.528;13.340;2022-09-09T13:18:43;24.40;99.90
16578;DHT22;8401;52.528;13.340;2022-09-09T13:21:09;24.30;99.90
16578;DHT22;8401;52.528;13.340;2022-09-09T13:23:37;24.50;99.90
16578;DHT22;8401;52.528;13.340;2022-09-09T13:26:05;24.10;99.90
16578;DHT22;8401;52.528;13.340;2022-09-09T13:28:33;24.00;99.90
16578;DHT22;8401;52.528;13.340;2022-09-09T13:31:05;23.80;99.90
16578;DHT22;8401;52.528;13.340;2022-09-09T13:33:36;24.00;99.90
16578;DHT22;8401;52.528;13.340;2022-09-09T13:36:07;24.30;99.90
16578;DHT22;8401;52.528;13.340;2022-09-09T13:38:36;24.30;99.90
16578;DHT22;8401;52.528;13.340;2022-09-09T13:41:04;24.30;99.90
16578;DHT22;8401;52.528;13.340;2022-09-09T13:43:37;24.50;99.90
16578;DHT22;8401;52.528;13.340;2022-09-09T13:46:38;24.50;99.90
16578;DHT22;8401;52.528;13.340;2022-09-09T13:51:45;24.20;99.90
16578;DHT22;8401;52.528;13.340;2022-09-09T13:54:14;24.60;99.90
16578;DHT22;8401;52.528;13.340;2022-09-09T13:56:41;24.70;99.90
16578;DHT22;8401;52.528;13.340;2022-09-09T13:59:25;24.60;99.90
16578;DHT22;8401;52.528;13.340;2022-09-09T14:01:51;24.90;99.90
16578;DHT22;8401;52.528;13.340;2022-09-09T14:04:18;25.10;99.90
16578;DHT22;8401;52.528;13.340;2022-09-09T14:06:46;24.80;99.90
16578;DHT22;8401;52.528;13.340;2022-09-09T14:09:14;24.30;99.90
16578;DHT22;8401;52.528;13.340;2022-09-09T14:11:41;24.60;99.90
16578;DHT22;8401;52.528;13.340;2022-09-09T14:14:07;24.60;99.90
16578;DHT22;8401;52.528;13.340;2022-09-09T14:16:32;24.70;99.90
16578;DHT22;8401;52.528;13.340;2022-09-09T14:18:58;24.70;99.90
16578;DHT22;8401;52.528;13.340;2022-09-09T14:21:25;25.10;99.90
16578;DHT22;8401;52.528;13.340;2022-09-09T14:23:51;25.30;99.90
16578;DHT22;8401;52.528;13.340;2022-09-09T14:26:18;25.20;99.90
16578;DHT22;8401;52.528;13.340;2022-09-09T14:28:46;24.90;99.90
16578;DHT22;8401;52.528;13.340;2022-09-09T14:31:13;24.40;99.90
16578;DHT22;8401;52.528;13.340;2022-09-09T14:33:39;24.10;99.90
16578;DHT22;8401;52.528;13.340;2022-09-09T14:36:05;24.10;99.90
16578;DHT22;8401;52.528;13.340;2022-09-09T14:38:36;24.20;99.90
16578;DHT22;8401;52.528;13.340;2022-09-09T14:41:06;24.40;99.90
16578;DHT22;8401;52.528;13.340;2022-09-09T14:43:32;24.60;99.90
16578;DHT22;8401;52.528;13.340;2022-09-09T14:46:07;24.30;99.90
16578;DHT22;8401;52.528;13.340;2022-09-09T14:48:34;24.20;99.90
16578;DHT22;8401;52.528;13.340;2022-09-09T14:51:10;24.10;99.90
16578;DHT22;8401;52.528;13.340;2022-09-09T14:53:36;24.10;99.90
16578;DHT22;8401;52.528;13.340;2022-09-09T14:56:07;24.20;99.90
16578;DHT22;8401;52.528;13.340;2022-09-09T14:58:34;24.00;99.90
16578;DHT22;8401;52.528;13.340;2022-09-09T15:01:07;23.80;99.90
16578;DHT22;8401;52.528;13.340;2022-09-09T15:03:35;23.70;99.90
16578;DHT22;8401;52.528;13.340;2022-09-09T15:06:09;23.60;99.90
16578;DHT22;8401;52.528;13.340;2022-09-09T15:08:36;23.50;99.90
16578;DHT22;8401;52.528;13.340;2022-09-09T15:11:04;23.70;99.90
16578;DHT22;8401;52.528;13.340;2022-09-09T15:13:29;23.80;99.90
16578;DHT22;8401;52.528;13.340;2022-09-09T15:15:55;23.70;99.90
16578;DHT22;8401;52.528;13.340;2022-09-09T15:18:23;24.00;99.90
16578;DHT22;8401;52.528;13.340;2022-09-09T15:20:49;24.10;99.90
16578;DHT22;8401;52.528;13.340;2022-09-09T15:23:14;24.20;99.90
16578;DHT22;8401;52.528;13.340;2022-09-09T15:25:54;24.10;99.90
16578;DHT22;8401;52.528;13.340;2022-09-09T15:28:21;24.00;99.90
16578;DHT22;8401;52.528;13.340;2022-09-09T15:30:51;23.80;99.90
16578;DHT22;8401;52.528;13.340;2022-09-09T15:33:17;23.60;99.90
16578;DHT22;8401;52.528;13.340;2022-09-09T15:35:43;23.40;99.90
16578;DHT22;8401;52.528;13.340;2022-09-09T15:38:09;23.30;99.90
16578;DHT22;8401;52.528;13.340;2022-09-09T15:40:35;23.40;99.90
16578;DHT22;8401;52.528;13.340;2022-09-09T15:43:01;23.30;99.90
16578;DHT22;8401;52.528;13.340;2022-09-09T15:45:28;23.40;99.90
16578;DHT22;8401;52.528;13.340;2022-09-09T15:47:57;23.50;99.90
16578;DHT22;8401;52.528;13.340;2022-09-09T15:50:23;23.20;99.90
16578;DHT22;8401;52.528;13.340;2022-09-09T15:52:48;23.00;99.90
16578;DHT22;8401;52.528;13.340;2022-09-09T15:55:14;22.90;99.90
16578;DHT22;8401;52.528;13.340;2022-09-09T15:57:40;22.70;99.90
16578;DHT22;8401;52.528;13.340;2022-09-09T16:00:06;22.60;99.90
16578;DHT22;8401;52.528;13.340;2022-09-09T16:02:32;22.60;99.90
16578;DHT22;8401;52.528;13.340;2022-09-09T16:04:58;22.40;99.90
16578;DHT22;8401;52.528;13.340;2022-09-09T16:07:23;22.30;99.90
16578;DHT22;8401;52.528;13.340;2022-09-09T16:09:49;22.30;99.90
16578;DHT22;8401;52.528;13.340;2022-09-09T16:12:18;22.30;99.90
16578;DHT22;8401;52.528;13.340;2022-09-09T16:14:44;22.20;99.90
16578;DHT22;8401;52.528;13.340;2022-09-09T16:17:10;22.20;99.90
16578;DHT22;8401;52.528;13.340;2022-09-09T16:19:37;22.30;99.90
16578;DHT22;8401;52.528;13.340;2022-09-09T16:22:04;22.60;99.90
16578;DHT22;8401;52.528;13.340;2022-09-09T16:24:31;22.90;99.90
16578;DHT22;8401;52.528;13.340;2022-09-09T16:26:57;22.90;99.90
16578;DHT22;8401;52.528;13.340;2022-09-09T16:29:23;22.90;99.90
16578;DHT22;8401;52.528;13.340;2022-09-09T16:31:49;23.00;99.90
16578;DHT22;8401;52.528;13.340;2022-09-09T16:34:16;22.80;99.90
16578;DHT22;8401;52.528;13.340;2022-09-09T16:36:43;22.70;99.90
16578;DHT22;8401;52.528;13.340;2022-09-09T16:39:12;22.80;99.90
16578;DHT22;8401;52.528;13.340;2022-09-09T16:41:39;22.80;99.90
16578;DHT22;8401;52.528;13.340;2022-09-09T16:44:07;22.50;99.90
16578;DHT22;8401;52.528;13.340;2022-09-09T16:46:38;22.70;99.90
16578;DHT22;8401;52.528;13.340;2022-09-09T16:49:06;22.80;99.90
16578;DHT22;8401;52.528;13.340;2022-09-09T16:51:35;22.70;99.90
16578;DHT22;8401;52.528;13.340;2022-09-09T16:54:03;22.50;99.90
16578;DHT22;8401;52.528;13.340;2022-09-09T16:56:30;22.20;99.90
16578;DHT22;8401;52.528;13.340;2022-09-09T16:59:00;22.10;99.90
16578;DHT22;8401;52.528;13.340;2022-09-09T17:01:28;22.00;99.90
16578;DHT22;8401;52.528;13.340;2022-09-09T17:03:59;22.30;99.90
16578;DHT22;8401;52.528;13.340;2022-09-09T17:06:26;22.20;99.90
16578;DHT22;8401;52.528;13.340;2022-09-09T17:08:56;22.40;99.90
16578;DHT22;8401;52.528;13.340;2022-09-09T17:11:22;22.50;99.90
16578;DHT22;8401;52.528;13.340;2022-09-09T17:13:49;22.40;99.90
16578;DHT22;8401;52.528;13.340;2022-09-09T17:16:17;22.10;99.90
16578;DHT22;8401;52.528;13.340;2022-09-09T17:18:44;21.90;99.90
16578;DHT22;8401;52.528;13.340;2022-09-09T17:21:16;21.80;99.90
16578;DHT22;8401;52.528;13.340;2022-09-09T17:23:44;21.60;99.90
16578;DHT22;8401;52.528;13.340;2022-09-09T17:26:12;21.70;99.90
16578;DHT22;8401;52.528;13.340;2022-09-09T17:28:39;21.90;99.90
16578;DHT22;8401;52.528;13.340;2022-09-09T17:31:07;21.80;99.90
16578;DHT22;8401;52.528;13.340;2022-09-09T17:33:34;21.60;99.90
16578;DHT22;8401;52.528;13.340;2022-09-09T17:36:05;21.70;99.90
16578;DHT22;8401;52.528;13.340;2022-09-09T17:38:32;21.70;99.90
16578;DHT22;8401;52.528;13.340;2022-09-09T17:41:06;21.50;99.90